Time;durP1;ratioP1;P1;durP2;ratioP2;P2;SDS_P1;SDS_P2;PMS_P1;PMS_P2;Temp;Humidity;BMP_temperature;BMP_pressure;BME280_temperature;BME280_humidity;BME280_pressure;Samples;Min_cycle;Max_cycle;Signal;HPM_P1;HPM_P2
2023/08/05 00:01:10;;;;;;;1999.90;999.90;;;14.50;90.30;;;;;;5101600;28;20071;-71
2023/08/05 00:03:36;;;;;;;1999.90;999.90;;;14.50;90.40;;;;;;5102230;28;20035;-72
2023/08/05 00:06:01;;;;;;;1999.90;999.90;;;14.50;90.50;;;;;;5104439;28;20031;-72
2023/08/05 00:08:27;;;;;;;1999.90;999.90;;;14.50;90.60;;;;;;5089175;28;20038;-72
2023/08/05 00:10:53;;;;;;;1999.90;999.90;;;14.50;90.60;;;;;;5103377;28;20031;-71
2023/08/05 00:13:19;;;;;;;1999.90;999.90;;;14.50;90.60;;;;;;5104003;28;20038;-72
2023/08/05 00:15:45;;;;;;;1999.90;999.90;;;14.50;90.60;;;;;;5104794;28;20671;-72
2023/08/05 00:18:10;;;;;;;1999.90;999.90;;;14.50;90.50;;;;;;5105958;28;20061;-72
2023/08/05 00:20:36;;;;;;;1999.90;999.90;;;14.50;90.50;;;;;;5112476;28;20069;-72
2023/08/05 00:23:02;;;;;;;1999.90;999.90;;;14.50;90.90;;;;;;5110466;28;20111;-72
2023/08/05 00:25:28;;;;;;;1999.90;999.90;;;14.50;90.60;;;;;;5108043;28;20055;-71
2023/08/05 00:27:53;;;;;;;1999.90;999.90;;;14.50;90.60;;;;;;5107404;28;20031;-72
2023/08/05 00:30:19;;;;;;;1999.90;999.90;;;14.40;90.80;;;;;;5107061;28;20035;-72
2023/08/05 00:32:44;;;;;;;1999.90;999.90;;;14.40;90.80;;;;;;5108499;28;20073;-72
2023/08/05 00:35:10;;;;;;;1999.90;999.90;;;14.50;91.40;;;;;;5108748;28;20620;-71
2023/08/05 00:37:36;;;;;;;1999.90;999.90;;;14.40;91.00;;;;;;5107895;28;20134;-72
2023/08/05 00:40:05;;;;;;;1999.90;999.90;;;14.40;91.20;;;;;;5107535;28;20401;-71
2023/08/05 00:42:31;;;;;;;1999.90;999.90;;;14.40;91.30;;;;;;5107527;28;20521;-71
2023/08/05 00:44:57;;;;;;;1999.90;999.90;;;14.40;91.20;;;;;;5095081;28;20077;-72
2023/08/05 00:47:23;;;;;;;1999.90;999.90;;;14.40;91.30;;;;;;5109926;28;20031;-72
2023/08/05 00:49:54;;;;;;;1999.90;999.90;;;14.40;91.40;;;;;;5105175;28;20389;-72
2023/08/05 00:52:22;;;;;;;1999.90;999.90;;;14.40;91.40;;;;;;5110465;28;20028;-71
2023/08/05 00:54:48;;;;;;;1999.90;999.90;;;14.30;91.50;;;;;;5126156;28;20051;-72
2023/08/05 00:57:14;;;;;;;1999.90;999.90;;;14.40;91.40;;;;;;5130294;28;20058;-71
2023/08/05 00:59:39;;;;;;;1999.90;999.90;;;14.40;91.40;;;;;;5127470;28;20040;-71
2023/08/05 01:02:06;;;;;;;1999.90;999.90;;;14.40;91.40;;;;;;5127179;28;20028;-71
2023/08/05 01:04:33;;;;;;;1999.90;999.90;;;14.30;91.50;;;;;;5127734;28;20106;-70
2023/08/05 01:06:59;;;;;;;1999.90;999.90;;;14.30;91.50;;;;;;5123195;28;20038;-71
2023/08/05 01:09:25;;;;;;;1999.90;999.90;;;14.40;91.40;;;;;;5124043;28;20032;-71
2023/08/05 01:11:51;;;;;;;1999.90;999.90;;;14.30;91.30;;;;;;5123033;28;20042;-72
2023/08/05 01:14:17;;;;;;;1999.90;999.90;;;14.30;91.30;;;;;;5116229;28;20038;-72
2023/08/05 01:16:43;;;;;;;1999.90;999.90;;;14.30;91.30;;;;;;5107629;28;20032;-71
2023/08/05 01:19:20;;;;;;;1999.90;999.90;;;14.30;91.30;;;;;;5108130;28;20043;-71
2023/08/05 01:22:10;;;;;;;1999.90;999.90;;;14.30;91.30;;;;;;5092537;28;20032;-71
2023/08/05 01:24:52;;;;;;;1999.90;999.90;;;14.30;91.20;;;;;;5109197;28;20154;-72
2023/08/05 01:27:18;;;;;;;1999.90;999.90;;;14.30;91.20;;;;;;5107081;28;20027;-72
2023/08/05 01:29:44;;;;;;;1999.90;999.90;;;14.30;91.40;;;;;;5104283;28;20122;-72
2023/08/05 01:32:10;;;;;;;1999.90;999.90;;;14.30;91.40;;;;;;5105865;28;20066;-72
2023/08/05 01:34:37;;;;;;;1999.90;999.90;;;14.40;91.10;;;;;;5112001;28;20055;-71
2023/08/05 01:37:03;;;;;;;1999.90;999.90;;;14.40;91.10;;;;;;5089857;28;20035;-71
2023/08/05 01:39:29;;;;;;;1999.90;999.90;;;14.40;91.00;;;;;;5102370;28;20127;-71
2023/08/05 01:41:55;;;;;;;1999.90;999.90;;;14.30;91.20;;;;;;5102591;28;20031;-71
2023/08/05 01:44:21;;;;;;;1999.90;999.90;;;14.40;91.10;;;;;;5108938;28;20039;-71
2023/08/05 01:46:47;;;;;;;1999.90;999.90;;;14.30;91.10;;;;;;5104469;28;20051;-71
2023/08/05 01:49:13;;;;;;;1999.90;999.90;;;14.30;91.20;;;;;;5108831;27;20457;-72
2023/08/05 01:51:38;;;;;;;1999.90;999.90;;;14.30;91.10;;;;;;5089486;28;20027;-72
2023/08/05 01:54:04;;;;;;;1999.90;999.90;;;14.20;91.20;;;;;;5105980;28;20070;-71
2023/08/05 01:56:30;;;;;;;1999.90;999.90;;;14.20;91.20;;;;;;5106392;28;20531;-71
2023/08/05 01:58:55;;;;;;;1999.90;999.90;;;14.20;91.20;;;;;;5105650;28;20035;-72
2023/08/05 02:01:21;;;;;;;1999.90;999.90;;;14.20;91.40;;;;;;5108421;28;20084;-72
2023/08/05 02:03:47;;;;;;;1999.90;999.90;;;14.20;91.20;;;;;;5106816;27;20032;-71
2023/08/05 02:06:14;;;;;;;1999.90;999.90;;;14.20;91.20;;;;;;5107276;28;20039;-72
2023/08/05 02:08:39;;;;;;;1999.90;999.90;;;14.20;91.40;;;;;;5105355;28;20155;-72
2023/08/05 02:11:05;;;;;;;1999.90;999.90;;;14.20;91.10;;;;;;5108073;28;20217;-72
2023/08/05 02:13:31;;;;;;;1999.90;999.90;;;14.20;90.90;;;;;;5089435;28;20382;-71
2023/08/05 02:15:56;;;;;;;1999.90;999.90;;;14.20;90.90;;;;;;5093019;28;20030;-72
2023/08/05 02:18:22;;;;;;;1999.90;999.90;;;14.30;90.80;;;;;;5092076;28;20536;-72
2023/08/05 02:20:48;;;;;;;1999.90;999.90;;;14.30;90.70;;;;;;5109289;28;20489;-71
2023/08/05 02:23:13;;;;;;;1999.90;999.90;;;14.30;90.80;;;;;;5104968;28;20031;-72
2023/08/05 02:25:39;;;;;;;1999.90;999.90;;;14.20;90.80;;;;;;5106443;28;20035;-72
2023/08/05 02:28:04;;;;;;;1999.90;999.90;;;14.20;90.80;;;;;;5106833;28;20385;-71
2023/08/05 02:30:30;;;;;;;1999.90;999.90;;;14.20;90.70;;;;;;5107258;28;20047;-71
2023/08/05 02:32:56;;;;;;;1999.90;999.90;;;14.20;90.80;;;;;;5105653;28;20158;-72
2023/08/05 02:35:21;;;;;;;1999.90;999.90;;;14.20;90.80;;;;;;5107591;27;20023;-72
2023/08/05 02:37:47;;;;;;;1999.90;999.90;;;14.20;90.70;;;;;;5103847;28;20027;-72
2023/08/05 02:40:13;;;;;;;1999.90;999.90;;;14.30;90.40;;;;;;5089099;28;20031;-71
2023/08/05 02:42:38;;;;;;;1999.90;999.90;;;14.20;90.40;;;;;;5106361;28;20039;-72
2023/08/05 02:45:05;;;;;;;1999.90;999.90;;;14.30;90.40;;;;;;5104686;28;20684;-72
2023/08/05 02:47:30;;;;;;;1999.90;999.90;;;14.20;90.30;;;;;;5104807;28;20502;-72
2023/08/05 02:49:57;;;;;;;1999.90;999.90;;;14.30;90.20;;;;;;5106721;28;20035;-71
2023/08/05 02:52:22;;;;;;;1999.90;999.90;;;14.30;90.20;;;;;;5107731;28;20139;-71
2023/08/05 02:54:48;;;;;;;1999.90;999.90;;;14.20;90.00;;;;;;5091733;28;20566;-72
2023/08/05 02:57:13;;;;;;;1999.90;999.90;;;14.20;90.10;;;;;;5105190;28;20043;-73
2023/08/05 02:59:39;;;;;;;1999.90;999.90;;;14.20;90.10;;;;;;5103967;28;20032;-71
2023/08/05 03:02:08;;;;;;;1999.90;999.90;;;14.30;90.10;;;;;;5108900;28;20039;-71
2023/08/05 03:04:33;;;;;;;1999.90;999.90;;;14.20;90.00;;;;;;5109722;27;20032;-71
2023/08/05 03:06:59;;;;;;;1999.90;999.90;;;14.30;89.70;;;;;;5104581;28;20039;-71
2023/08/05 03:09:25;;;;;;;1999.90;999.90;;;14.20;89.90;;;;;;5106303;28;20462;-71
2023/08/05 03:11:50;;;;;;;1999.90;999.90;;;14.30;90.00;;;;;;5106086;28;21317;-72
2023/08/05 03:14:16;;;;;;;1999.90;999.90;;;14.30;89.70;;;;;;5107224;28;20557;-72
2023/08/05 03:16:41;;;;;;;1999.90;999.90;;;14.30;89.40;;;;;;5104267;28;20040;-72
2023/08/05 03:19:07;;;;;;;1999.90;999.90;;;14.20;89.60;;;;;;5107837;28;20035;-72
2023/08/05 03:21:33;;;;;;;1999.90;999.90;;;14.10;90.00;;;;;;5102584;28;20790;-71
2023/08/05 03:23:58;;;;;;;1999.90;999.90;;;14.20;89.90;;;;;;5103232;28;20036;-71
2023/08/05 03:26:24;;;;;;;1999.90;999.90;;;14.20;89.90;;;;;;5101240;28;20038;-71
2023/08/05 03:28:49;;;;;;;1999.90;999.90;;;14.20;89.70;;;;;;5107082;28;20101;-72
2023/08/05 03:31:15;;;;;;;1999.90;999.90;;;14.30;89.40;;;;;;5105090;28;20036;-72
2023/08/05 03:33:42;;;;;;;1999.90;999.90;;;14.30;89.50;;;;;;5107339;27;20051;-72
2023/08/05 03:36:07;;;;;;;1999.90;999.90;;;14.30;89.30;;;;;;5108098;28;20107;-71
2023/08/05 03:38:33;;;;;;;1999.90;999.90;;;14.20;89.20;;;;;;5103847;28;20099;-71
2023/08/05 03:41:05;;;;;;;1999.90;999.90;;;14.30;89.30;;;;;;5104111;28;20023;-72
2023/08/05 03:43:30;;;;;;;1999.90;999.90;;;14.30;89.70;;;;;;5088198;28;20134;-72
2023/08/05 03:45:56;;;;;;;1999.90;999.90;;;14.30;89.20;;;;;;5104470;28;20112;-72
2023/08/05 03:48:21;;;;;;;1999.90;999.90;;;14.20;89.70;;;;;;5105821;28;20038;-72
2023/08/05 03:50:47;;;;;;;1999.90;999.90;;;14.30;89.30;;;;;;5104592;28;20108;-72
2023/08/05 03:53:13;;;;;;;1999.90;999.90;;;14.20;89.70;;;;;;5089223;28;20165;-72
2023/08/05 03:55:39;;;;;;;1999.90;999.90;;;14.20;90.00;;;;;;5107420;28;20153;-72
2023/08/05 03:58:04;;;;;;;1999.90;999.90;;;14.20;89.20;;;;;;5104540;28;20039;-71
2023/08/05 04:00:30;;;;;;;1999.90;999.90;;;14.30;89.00;;;;;;5106928;28;20039;-71
2023/08/05 04:02:56;;;;;;;1999.90;999.90;;;14.30;89.80;;;;;;5100474;28;20093;-71
2023/08/05 04:05:21;;;;;;;1999.90;999.90;;;14.20;89.20;;;;;;5106563;28;20042;-72
2023/08/05 04:07:47;;;;;;;1999.90;999.90;;;14.30;88.80;;;;;;5102888;28;20414;-72
2023/08/05 04:10:13;;;;;;;1999.90;999.90;;;14.20;89.00;;;;;;5104534;28;20059;-72
2023/08/05 04:12:38;;;;;;;1999.90;999.90;;;14.20;88.80;;;;;;5105028;28;20028;-72
2023/08/05 04:15:07;;;;;;;1999.90;999.90;;;14.10;89.50;;;;;;5104582;28;20024;-71
2023/08/05 04:17:33;;;;;;;1999.90;999.90;;;14.20;89.30;;;;;;5107239;28;20040;-72
2023/08/05 04:20:00;;;;;;;1999.90;999.90;;;14.20;89.50;;;;;;5106481;28;20035;-72
2023/08/05 04:22:27;;;;;;;1999.90;999.90;;;14.30;89.10;;;;;;5103223;28;20036;-72
2023/08/05 04:24:53;;;;;;;1999.90;999.90;;;14.20;88.80;;;;;;5105019;28;20027;-72
2023/08/05 04:27:19;;;;;;;1999.90;999.90;;;14.20;88.80;;;;;;5105579;28;20044;-72
2023/08/05 04:29:44;;;;;;;1999.90;999.90;;;14.20;88.60;;;;;;5102929;28;21287;-72
2023/08/05 04:32:10;;;;;;;1999.90;999.90;;;14.20;88.50;;;;;;5104259;28;20118;-72
2023/08/05 04:34:37;;;;;;;1999.90;999.90;;;14.20;88.90;;;;;;5104440;28;20024;-72
2023/08/05 04:37:35;;;;;;;1999.90;999.90;;;14.30;88.10;;;;;;5105135;28;20031;-71
2023/08/05 04:40:00;;;;;;;1999.90;999.90;;;14.20;87.90;;;;;;5046222;28;20035;-71
2023/08/05 04:42:26;;;;;;;1999.90;999.90;;;14.20;88.20;;;;;;5104008;28;20032;-72
2023/08/05 04:44:52;;;;;;;1999.90;999.90;;;14.30;88.20;;;;;;5101085;28;20455;-72
2023/08/05 04:47:17;;;;;;;1999.90;999.90;;;14.20;88.60;;;;;;5101949;28;20032;-72
2023/08/05 04:49:44;;;;;;;1999.90;999.90;;;14.30;88.00;;;;;;5088417;28;20023;-72
2023/08/05 04:52:12;;;;;;;1999.90;999.90;;;14.30;88.20;;;;;;5098215;28;20932;-71
2023/08/05 04:54:44;;;;;;;1999.90;999.90;;;14.30;88.00;;;;;;5103189;28;20035;-72
2023/08/05 04:57:10;;;;;;;1999.90;999.90;;;14.30;88.00;;;;;;5100133;28;20052;-71
2023/08/05 04:59:36;;;;;;;1999.90;999.90;;;14.40;88.00;;;;;;5106461;28;20102;-71
2023/08/05 05:02:02;;;;;;;1999.90;999.90;;;14.30;88.30;;;;;;5106466;28;20580;-72
2023/08/05 05:04:29;;;;;;;1999.90;999.90;;;14.30;88.40;;;;;;5102972;28;20051;-72
2023/08/05 05:06:54;;;;;;;1999.90;999.90;;;14.40;88.10;;;;;;5104031;28;20024;-72
2023/08/05 05:09:20;;;;;;;1999.90;999.90;;;14.40;88.30;;;;;;5106141;28;20020;-72
2023/08/05 05:11:46;;;;;;;1999.90;999.90;;;14.40;87.90;;;;;;5108812;28;20117;-72
2023/08/05 05:14:12;;;;;;;1999.90;999.90;;;14.40;87.90;;;;;;5104860;27;20088;-72
2023/08/05 05:16:38;;;;;;;1999.90;999.90;;;14.40;87.80;;;;;;5106668;28;20486;-72
2023/08/05 05:19:03;;;;;;;1999.90;999.90;;;14.40;88.00;;;;;;5106926;28;20036;-72
2023/08/05 05:21:30;;;;;;;1999.90;999.90;;;14.40;88.00;;;;;;5092243;28;20184;-71
2023/08/05 05:23:56;;;;;;;1999.90;999.90;;;14.50;88.10;;;;;;5108987;28;20049;-71
2023/08/05 05:26:21;;;;;;;1999.90;999.90;;;14.50;87.60;;;;;;5104753;28;20054;-71
2023/08/05 05:28:47;;;;;;;1999.90;999.90;;;14.50;87.70;;;;;;5107282;28;20024;-72
2023/08/05 05:31:12;;;;;;;1999.90;999.90;;;14.50;87.60;;;;;;5110045;27;20066;-71
2023/08/05 05:33:38;;;;;;;1999.90;999.90;;;14.40;87.80;;;;;;5101130;28;20059;-72
2023/08/05 05:36:04;;;;;;;1999.90;999.90;;;14.50;88.30;;;;;;5108932;27;20815;-72
2023/08/05 05:38:29;;;;;;;1999.90;999.90;;;14.50;88.20;;;;;;5106258;28;20024;-72
2023/08/05 05:40:55;;;;;;;1999.90;999.90;;;14.50;87.90;;;;;;5091242;28;20040;-72
2023/08/05 05:43:21;;;;;;;1999.90;999.90;;;14.60;87.70;;;;;;5089065;28;20066;-72
2023/08/05 05:45:46;;;;;;;1999.90;999.90;;;14.60;87.70;;;;;;5108365;27;20032;-72
2023/08/05 05:48:12;;;;;;;1999.90;999.90;;;14.60;87.70;;;;;;5107550;28;20038;-74
2023/08/05 05:50:42;;;;;;;1999.90;999.90;;;14.60;87.20;;;;;;5107152;28;20027;-76
2023/08/05 05:53:13;;;;;;;1999.90;999.90;;;14.60;87.40;;;;;;5104734;28;20388;-74
2023/08/05 05:55:42;;;;;;;1999.90;999.90;;;14.50;87.80;;;;;;5106339;28;20038;-78
2023/08/05 05:58:08;;;;;;;1999.90;999.90;;;14.60;87.80;;;;;;5104754;28;20512;-71
2023/08/05 06:00:37;;;;;;;1999.90;999.90;;;14.60;87.80;;;;;;5105550;28;20039;-71
2023/08/05 06:03:03;;;;;;;1999.90;999.90;;;14.60;87.30;;;;;;5106857;28;20092;-71
2023/08/05 06:05:30;;;;;;;1999.90;999.90;;;14.60;87.70;;;;;;5101717;28;20375;-71
2023/08/05 06:07:55;;;;;;;1999.90;999.90;;;14.60;87.90;;;;;;5108768;27;20069;-72
2023/08/05 06:10:21;;;;;;;1999.90;999.90;;;14.60;87.80;;;;;;5104089;28;20148;-72
2023/08/05 06:12:46;;;;;;;1999.90;999.90;;;14.60;87.40;;;;;;5105860;28;20024;-72
2023/08/05 06:15:12;;;;;;;1999.90;999.90;;;14.60;87.90;;;;;;5102197;27;20019;-72
2023/08/05 06:17:39;;;;;;;1999.90;999.90;;;14.60;88.30;;;;;;5106306;28;20114;-72
2023/08/05 06:20:06;;;;;;;1999.90;999.90;;;14.60;88.30;;;;;;5104716;28;20032;-72
2023/08/05 06:22:31;;;;;;;1999.90;999.90;;;14.60;88.00;;;;;;5106145;28;20110;-72
2023/08/05 06:24:57;;;;;;;1999.90;999.90;;;14.60;87.60;;;;;;5106158;28;20122;-71
2023/08/05 06:27:23;;;;;;;1999.90;999.90;;;14.70;87.70;;;;;;5105660;28;20032;-72
2023/08/05 06:29:48;;;;;;;1999.90;999.90;;;14.70;87.20;;;;;;5110685;28;20062;-72
2023/08/05 06:32:14;;;;;;;1999.90;999.90;;;14.80;87.40;;;;;;5106566;28;20034;-72
2023/08/05 06:34:39;;;;;;;1999.90;999.90;;;14.90;87.60;;;;;;5110642;28;20079;-72
2023/08/05 06:37:05;;;;;;;1999.90;999.90;;;15.10;85.80;;;;;;5105649;28;20036;-72
2023/08/05 06:39:35;;;;;;;1999.90;999.90;;;15.10;85.30;;;;;;5105755;28;20146;-73
2023/08/05 06:42:01;;;;;;;1999.90;999.90;;;15.20;86.80;;;;;;5106578;28;20556;-73
2023/08/05 06:44:26;;;;;;;1999.90;999.90;;;15.30;85.00;;;;;;5104022;28;20024;-73
2023/08/05 06:46:52;;;;;;;1999.90;999.90;;;15.40;85.10;;;;;;5103555;28;20114;-73
2023/08/05 06:49:18;;;;;;;1999.90;999.90;;;15.40;84.00;;;;;;5108138;28;20431;-72
2023/08/05 06:51:44;;;;;;;1999.90;999.90;;;15.50;84.60;;;;;;5104589;28;20427;-72
2023/08/05 06:54:11;;;;;;;1999.90;999.90;;;15.50;84.00;;;;;;5101681;27;20032;-73
2023/08/05 06:56:37;;;;;;;1999.90;999.90;;;15.50;83.60;;;;;;5104660;27;20077;-72
2023/08/05 06:59:02;;;;;;;1999.90;999.90;;;15.70;83.20;;;;;;5106321;28;20023;-73
2023/08/05 07:01:28;;;;;;;1999.90;999.90;;;15.70;82.80;;;;;;5102721;28;20063;-72
2023/08/05 07:03:54;;;;;;;1999.90;999.90;;;15.80;82.30;;;;;;5086836;28;20044;-73
2023/08/05 07:06:19;;;;;;;1999.90;999.90;;;15.70;83.00;;;;;;5104330;28;20028;-72
2023/08/05 07:08:45;;;;;;;1999.90;999.90;;;15.80;82.60;;;;;;5108858;27;20027;-72
2023/08/05 07:11:11;;;;;;;1999.90;999.90;;;15.70;81.60;;;;;;5107091;28;20109;-72
2023/08/05 07:13:36;;;;;;;1999.90;999.90;;;15.80;82.30;;;;;;5091574;28;20814;-72
2023/08/05 07:16:03;;;;;;;1999.90;999.90;;;15.80;82.10;;;;;;5072871;28;20053;-72
2023/08/05 07:18:29;;;;;;;1999.90;999.90;;;16.00;80.70;;;;;;5089184;28;20024;-72
2023/08/05 07:20:55;;;;;;;1999.90;999.90;;;15.80;81.70;;;;;;5107541;28;20047;-73
2023/08/05 07:23:21;;;;;;;1999.90;999.90;;;15.80;82.00;;;;;;5106724;28;20039;-73
2023/08/05 07:25:47;;;;;;;1999.90;999.90;;;15.90;81.30;;;;;;5104289;28;20031;-73
2023/08/05 07:28:12;;;;;;;1999.90;999.90;;;16.00;81.00;;;;;;5104380;27;20035;-73
2023/08/05 07:30:40;;;;;;;1999.90;999.90;;;16.10;80.40;;;;;;5102969;28;20028;-82
2023/08/05 07:33:09;;;;;;;1999.90;999.90;;;16.20;80.20;;;;;;5088702;28;20055;-73
2023/08/05 07:35:34;;;;;;;1999.90;999.90;;;16.40;79.70;;;;;;5106412;28;20110;-73
2023/08/05 07:38:04;;;;;;;1999.90;999.90;;;16.20;79.40;;;;;;5107486;28;20127;-72
2023/08/05 07:40:31;;;;;;;1999.90;999.90;;;16.10;79.40;;;;;;5089678;28;20039;-72
2023/08/05 07:42:58;;;;;;;1999.90;999.90;;;16.20;80.10;;;;;;5103910;28;20791;-72
2023/08/05 07:45:25;;;;;;;1999.90;999.90;;;16.00;79.30;;;;;;5103435;28;20485;-72
2023/08/05 07:47:51;;;;;;;1999.90;999.90;;;15.80;79.60;;;;;;5102538;28;20032;-73
2023/08/05 07:50:22;;;;;;;1999.90;999.90;;;15.70;80.30;;;;;;5104711;28;20044;-73
2023/08/05 07:52:50;;;;;;;1999.90;999.90;;;16.00;80.00;;;;;;5106375;28;20038;-72
2023/08/05 07:55:15;;;;;;;1999.90;999.90;;;16.40;79.50;;;;;;5106912;28;20138;-72
2023/08/05 07:57:41;;;;;;;1999.90;999.90;;;16.60;77.90;;;;;;5101331;28;20139;-72
2023/08/05 08:00:09;;;;;;;1999.90;999.90;;;16.90;76.00;;;;;;5107143;28;20044;-72
2023/08/05 08:02:35;;;;;;;1999.90;999.90;;;17.30;75.60;;;;;;5103772;28;20034;-73
2023/08/05 08:05:04;;;;;;;1999.90;999.90;;;17.70;77.30;;;;;;5107869;28;20027;-71
2023/08/05 08:07:30;;;;;;;1999.90;999.90;;;18.40;72.40;;;;;;5103015;28;20067;-74
2023/08/05 08:09:56;;;;;;;1999.90;999.90;;;18.00;71.50;;;;;;5107388;28;20066;-78
2023/08/05 08:12:22;;;;;;;1999.90;999.90;;;18.10;71.10;;;;;;5108819;28;20028;-77
2023/08/05 08:14:48;;;;;;;1999.90;999.90;;;18.50;69.70;;;;;;5072722;28;20702;-75
2023/08/05 08:17:16;;;;;;;1999.90;999.90;;;18.60;68.70;;;;;;5113626;28;20036;-88
2023/08/05 08:19:42;;;;;;;1999.90;999.90;;;18.90;69.70;;;;;;5098094;28;20051;-75
2023/08/05 08:22:08;;;;;;;1999.90;999.90;;;18.60;68.80;;;;;;5078759;28;20056;-80
2023/08/05 08:24:35;;;;;;;1999.90;999.90;;;19.00;68.00;;;;;;5107802;28;20028;-79
2023/08/05 08:27:00;;;;;;;1999.90;999.90;;;19.40;65.10;;;;;;5087821;28;20444;-77
2023/08/05 08:29:26;;;;;;;1999.90;999.90;;;19.10;65.30;;;;;;5100066;28;20039;-77
2023/08/05 08:31:52;;;;;;;1999.90;999.90;;;19.20;66.90;;;;;;5103761;28;20077;-77
2023/08/05 08:34:17;;;;;;;1999.90;999.90;;;19.40;66.40;;;;;;5054450;28;20038;-77
2023/08/05 08:36:44;;;;;;;1999.90;999.90;;;19.00;66.20;;;;;;5089546;28;20559;-77
2023/08/05 08:39:09;;;;;;;1999.90;999.90;;;19.00;67.00;;;;;;5108335;28;20027;-77
2023/08/05 08:41:43;;;;;;;1999.90;999.90;;;18.90;64.40;;;;;;5095161;28;20390;-77
2023/08/05 08:44:10;;;;;;;1999.90;999.90;;;18.90;63.30;;;;;;5091165;28;20023;-77
2023/08/05 08:46:37;;;;;;;1999.90;999.90;;;19.00;64.60;;;;;;5110025;28;20067;-77
2023/08/05 08:49:03;;;;;;;1999.90;999.90;;;19.30;64.20;;;;;;5107492;27;20020;-77
2023/08/05 08:51:29;;;;;;;1999.90;999.90;;;19.50;64.10;;;;;;5109946;28;20504;-76
2023/08/05 08:53:55;;;;;;;1999.90;999.90;;;19.70;64.90;;;;;;5109446;28;20055;-77
2023/08/05 08:56:21;;;;;;;1999.90;999.90;;;19.90;62.10;;;;;;5111504;27;20466;-77
2023/08/05 08:58:47;;;;;;;1999.90;999.90;;;19.50;62.70;;;;;;5109342;28;20161;-76
2023/08/05 09:01:16;;;;;;;1999.90;999.90;;;19.40;63.90;;;;;;5107959;28;20552;-76
2023/08/05 09:03:43;;;;;;;1999.90;999.90;;;19.30;63.40;;;;;;5109951;27;20102;-76
2023/08/05 09:06:09;;;;;;;1999.90;999.90;;;19.20;64.90;;;;;;5109174;28;20039;-75
2023/08/05 09:08:35;;;;;;;1999.90;999.90;;;18.80;63.90;;;;;;5109765;28;20035;-76
2023/08/05 09:11:04;;;;;;;1999.90;999.90;;;19.10;65.00;;;;;;5105224;27;20031;-81
2023/08/05 09:13:29;;;;;;;1999.90;999.90;;;19.00;64.70;;;;;;5087899;28;20044;-77
2023/08/05 09:15:55;;;;;;;1999.90;999.90;;;18.90;64.70;;;;;;5087780;28;20027;-77
2023/08/05 09:18:21;;;;;;;1999.90;999.90;;;19.40;64.40;;;;;;5105117;27;20032;-77
2023/08/05 09:20:50;;;;;;;1999.90;999.90;;;19.90;63.00;;;;;;5074844;28;20118;-76
2023/08/05 09:23:16;;;;;;;1999.90;999.90;;;20.10;61.40;;;;;;5105322;28;20046;-76
2023/08/05 09:25:45;;;;;;;1999.90;999.90;;;20.40;59.00;;;;;;5107645;27;20043;-76
2023/08/05 09:28:11;;;;;;;1999.90;999.90;;;20.00;64.50;;;;;;5097679;28;20058;-77
2023/08/05 09:30:37;;;;;;;1999.90;999.90;;;20.10;59.30;;;;;;5102256;28;20521;-77
2023/08/05 09:33:05;;;;;;;1999.90;999.90;;;20.10;60.90;;;;;;5107847;27;20435;-76
2023/08/05 09:35:30;;;;;;;1999.90;999.90;;;20.40;62.50;;;;;;5101733;28;20035;-78
2023/08/05 09:37:56;;;;;;;1999.90;999.90;;;21.20;61.60;;;;;;5091748;28;20040;-77
2023/08/05 09:40:26;;;;;;;1999.90;999.90;;;21.60;54.60;;;;;;5104556;28;20023;-76
2023/08/05 09:43:14;;;;;;;1999.90;999.90;;;21.20;54.30;;;;;;5089406;28;20043;-77
2023/08/05 09:45:43;;;;;;;1999.90;999.90;;;20.50;57.50;;;;;;5103609;28;20047;-77
2023/08/05 09:48:10;;;;;;;1999.90;999.90;;;20.30;57.30;;;;;;5106488;28;20036;-76
2023/08/05 09:50:37;;;;;;;1999.90;999.90;;;20.30;57.50;;;;;;5102896;28;20084;-74
2023/08/05 09:53:09;;;;;;;1999.90;999.90;;;20.40;58.00;;;;;;5112491;28;20281;-73
2023/08/05 09:55:38;;;;;;;1999.90;999.90;;;20.00;59.00;;;;;;5097229;28;20047;-74
2023/08/05 09:58:07;;;;;;;1999.90;999.90;;;20.20;59.50;;;;;;5106746;28;20044;-74
2023/08/05 10:00:35;;;;;;;1999.90;999.90;;;20.00;60.40;;;;;;5104800;28;20273;-74
2023/08/05 10:03:06;;;;;;;1999.90;999.90;;;19.30;61.40;;;;;;5102763;28;20047;-74
2023/08/05 10:05:33;;;;;;;1999.90;999.90;;;18.60;63.20;;;;;;5107115;28;20031;-75
2023/08/05 10:08:00;;;;;;;1999.90;999.90;;;18.40;65.60;;;;;;5105007;28;20707;-75
2023/08/05 10:10:28;;;;;;;1999.90;999.90;;;18.30;64.90;;;;;;5108403;28;20489;-77
2023/08/05 10:13:14;;;;;;;1999.90;999.90;;;18.10;65.80;;;;;;5074058;28;20047;-82
2023/08/05 10:15:48;;;;;;;1999.90;999.90;;;18.20;66.20;;;;;;5105937;28;20552;-77
2023/08/05 10:18:18;;;;;;;1999.90;999.90;;;18.20;66.30;;;;;;5104669;28;20027;-77
2023/08/05 10:20:48;;;;;;;;;;;18.20;67.10;;;;;;5105527;28;20044;-77
2023/08/05 10:23:14;;;;;;;1999.90;999.90;;;18.00;66.20;;;;;;5090578;28;20408;-77
2023/08/05 10:25:44;;;;;;;1999.90;999.90;;;17.90;65.80;;;;;;5104526;27;20052;-76
2023/08/05 10:28:38;;;;;;;1999.90;999.90;;;17.90;66.30;;;;;;5108211;28;20075;-76
2023/08/05 10:31:05;;;;;;;1999.90;999.90;;;17.90;66.10;;;;;;5104326;28;20262;-78
2023/08/05 10:33:31;;;;;;;1999.90;999.90;;;18.00;66.10;;;;;;5107011;28;20019;-78
2023/08/05 10:36:02;;;;;;;1999.90;999.90;;;18.10;65.90;;;;;;5090926;28;20031;-77
2023/08/05 10:38:30;;;;;;;1999.90;999.90;;;18.10;66.50;;;;;;5104753;28;20413;-77
2023/08/05 10:41:10;;;;;;;1999.90;999.90;;;18.20;64.50;;;;;;5091414;28;20028;-77
2023/08/05 10:43:40;;;;;;;1999.90;999.90;;;18.10;65.60;;;;;;5086478;28;20038;-77
2023/08/05 10:46:06;;;;;;;1999.90;999.90;;;18.20;64.60;;;;;;5103809;28;20040;-80
2023/08/05 10:48:35;;;;;;;1999.90;999.90;;;18.20;64.00;;;;;;5102982;28;20572;-79
2023/08/05 10:51:07;;;;;;;1999.90;999.90;;;18.20;65.10;;;;;;5105708;28;20028;-78
2023/08/05 10:53:34;;;;;;;1999.90;999.90;;;18.30;64.60;;;;;;5086446;28;20454;-77
2023/08/05 10:55:59;;;;;;;1999.90;999.90;;;18.30;64.10;;;;;;5101387;28;20142;-77
2023/08/05 10:58:29;;;;;;;1999.90;999.90;;;18.50;63.60;;;;;;5089235;28;20549;-76
2023/08/05 11:01:05;;;;;;;1999.90;999.90;;;18.40;63.70;;;;;;5106806;28;20031;-77
2023/08/05 11:03:47;;;;;;;1999.90;999.90;;;18.50;64.70;;;;;;5088165;28;20091;-77
2023/08/05 11:06:14;;;;;;;1999.90;999.90;;;18.70;63.80;;;;;;5103626;28;20055;-78
2023/08/05 11:08:41;;;;;;;1999.90;999.90;;;18.80;63.20;;;;;;5104009;27;20074;-77
2023/08/05 11:11:07;;;;;;;1999.90;999.90;;;19.00;65.00;;;;;;5089302;28;20447;-79
2023/08/05 11:13:37;;;;;;;1999.90;999.90;;;18.80;65.50;;;;;;5103431;28;20024;-77
2023/08/05 11:16:05;;;;;;;1999.90;999.90;;;18.80;66.30;;;;;;5097067;28;20051;-78
2023/08/05 11:18:31;;;;;;;1999.90;999.90;;;18.70;63.40;;;;;;5102707;28;20096;-77
2023/08/05 11:20:58;;;;;;;1999.90;999.90;;;19.00;64.30;;;;;;5104246;28;20050;-77
2023/08/05 11:23:24;;;;;;;1999.90;999.90;;;18.90;65.30;;;;;;5107191;28;20032;-77
2023/08/05 11:25:52;;;;;;;1999.90;999.90;;;19.00;64.20;;;;;;5100331;28;20449;-78
2023/08/05 11:28:19;;;;;;;1999.90;999.90;;;19.30;61.70;;;;;;5071784;28;20522;-77
2023/08/05 11:30:45;;;;;;;1999.90;999.90;;;19.80;59.40;;;;;;5087453;28;20108;-78
2023/08/05 11:33:10;;;;;;;1999.90;999.90;;;19.80;60.10;;;;;;5103154;28;20766;-77
2023/08/05 11:35:45;;;;;;;1999.90;999.90;;;19.30;62.30;;;;;;5085784;28;20086;-77
2023/08/05 11:38:14;;;;;;;1999.90;999.90;;;19.40;60.20;;;;;;5071164;28;20159;-78
2023/08/05 11:40:45;;;;;;;1999.90;999.90;;;19.60;59.00;;;;;;5105752;28;20043;-81
2023/08/05 11:43:13;;;;;;;1999.90;999.90;;;20.10;60.60;;;;;;5097432;28;20131;-77
2023/08/05 11:45:40;;;;;;;1999.90;999.90;;;19.70;59.70;;;;;;5101383;28;20062;-77
2023/08/05 11:48:15;;;;;;;1999.90;999.90;;;20.20;60.30;;;;;;5097687;28;20323;-78
2023/08/05 11:50:41;;;;;;;1999.90;999.90;;;20.10;60.60;;;;;;5100057;28;20555;-78
2023/08/05 11:53:06;;;;;;;1999.90;999.90;;;19.90;61.60;;;;;;5106849;28;20035;-77
2023/08/05 11:55:34;;;;;;;1999.90;999.90;;;19.30;62.70;;;;;;5100433;28;20115;-73
2023/08/05 11:58:03;;;;;;;1999.90;999.90;;;19.70;63.50;;;;;;5104922;28;20210;-79